• Join FlightAware (Why Join?)
  • Login
  • US Flag GB Flag 
16:05 EDT


 

Airport Tracker/Info


-or-


 

Live Flight TrackerFlight Track Log ✈ N76AD ✈ 11-May-2013 ✈ KBDR - KISP

Flight Track Log - Related Links

Times and Time Zones

All times are in EDT time to prevent confusion due to time zone crossing. See the N76AD flight status page for this flight to view local times or setup timezone preferences in your user account.

Time Position Orientation Groundspeed Altitude Reporting Facility
EDT Latitude Longitude Course Direction KTS MPH feet Rate Location/Type
15:05 41.6000 -72.5000 143° Southeast 134 154 4,000  Level New York TRACON
15:06 41.5833 -72.4833 143° Southeast 134 154 3,900 -120 Descending New York TRACON
15:07 41.6167 -72.5000 340° North 152 175 3,800 -420 Descending New York TRACON
15:08 41.6333 -72.5333 304° West 110 127 3,100 -480 Descending New York TRACON
15:09 41.6500 -72.5500 323° Northwest 125 144 2,900 -60 Descending New York TRACON
15:11 41.6237 -72.5672 206° Southwest  Level Estimated
15:11 41.6500 -72.5000 206° Southwest 118 136 3,000  Level New York TRACON
15:13 41.6261 -72.5170 208° Southwest  Level Estimated
15:20 41.4903 -72.6135 208° Southwest  Level Estimated
15:21 41.4709 -72.6273 208° Southwest  Level Estimated
15:22 41.4515 -72.6410 208° Southwest  Level Estimated
15:23 41.4320 -72.6547 208° Southwest  Level Estimated
15:24 41.4126 -72.6685 208° Southwest  Level Estimated
15:25 41.3932 -72.6822 208° Southwest  Level Estimated
15:26 41.3738 -72.6959 208° Southwest  Level Estimated
15:27 41.3544 -72.7096 208° Southwest  Level Estimated
15:28 41.3350 -72.7233 208° Southwest  Level Estimated
15:29 41.3155 -72.7370 208° Southwest  Level Estimated
15:30 41.2961 -72.7507 208° Southwest  Level Estimated
15:31 41.2767 -72.7643 208° Southwest  Level Estimated
15:32 41.2573 -72.7780 208° Southwest  Level Estimated
15:33 41.2378 -72.7916 208° Southwest  Level Estimated
15:34 41.2184 -72.8053 208° Southwest  Level Estimated
15:35 41.1990 -72.8189 208° Southwest  Level Estimated
15:35 41.1000 -73.2000 208° Southwest 89 102 1,900  Level New York TRACON
15:36 41.1796 -72.8326 208° Southwest  Level Estimated
15:36 41.0833 -73.1833 143° Southeast 110 127 2,100  Level New York TRACON
15:37 41.1601 -72.8462 208° Southwest  Level Estimated
15:37 41.0667 -73.1500 124° Southeast 118 136 1,900  Level New York TRACON
15:38 41.1407 -72.8598 208° Southwest  Level Estimated
15:38 41.0333 -73.1333 159° South 112 129 1,900  Level New York TRACON
15:39 41.1213 -72.8734 208° Southwest  Level Estimated
15:39 41.0167 -73.1000 124° Southeast 115 132 1,900  Level New York TRACON
15:40 41.1018 -72.8870 208° Southwest  Level Estimated
15:40 41.0000 -73.0833 143° Southeast 108 124 2,000  Level New York TRACON
15:41 41.0824 -72.9006 208° Southwest  Level Estimated
15:41 40.9667 -73.0833 180° South 100 115 1,900  Level New York TRACON
15:42 40.9500 -73.0500 123° Southeast 119 137 1,900  Level New York TRACON
15:43 40.9500 -73.0167 90° East 113 130 1,900  Level New York TRACON
15:44 40.9333 -72.9833 123° Southeast 108 124 1,900  Level New York TRACON
15:45 40.9167 -73.0000 217° Southwest 90 104 1,900  Level New York TRACON
15:46 40.9167 -73.0333 270° West 85 98 1,900 60 Level New York TRACON
15:48 40.8833 -73.0333 180° South 111 128 2,100 60 Climbing New York TRACON